sensor_id;sensor_type;location;lat;lon;timestamp;temperature;humidity
20492;DHT22;10404;51.468;6.762;2023-11-21T00:02:22;7.90;84.30
20492;DHT22;10404;51.468;6.762;2023-11-21T00:04:49;7.90;84.30
20492;DHT22;10404;51.468;6.762;2023-11-21T00:07:14;7.90;84.20
20492;DHT22;10404;51.468;6.762;2023-11-21T00:09:41;7.90;84.30
20492;DHT22;10404;51.468;6.762;2023-11-21T00:12:07;7.90;84.30
20492;DHT22;10404;51.468;6.762;2023-11-21T00:14:36;7.90;84.30
20492;DHT22;10404;51.468;6.762;2023-11-21T00:17:02;7.90;84.30
20492;DHT22;10404;51.468;6.762;2023-11-21T00:19:28;7.80;84.40
20492;DHT22;10404;51.468;6.762;2023-11-21T00:21:53;7.90;84.30
20492;DHT22;10404;51.468;6.762;2023-11-21T00:24:19;7.90;84.40
20492;DHT22;10404;51.468;6.762;2023-11-21T00:26:44;7.90;84.30
20492;DHT22;10404;51.468;6.762;2023-11-21T00:29:10;7.90;84.30
20492;DHT22;10404;51.468;6.762;2023-11-21T00:31:36;7.80;84.30
20492;DHT22;10404;51.468;6.762;2023-11-21T00:34:05;7.80;84.30
20492;DHT22;10404;51.468;6.762;2023-11-21T00:36:31;7.80;84.30
20492;DHT22;10404;51.468;6.762;2023-11-21T00:38:58;7.80;84.30
20492;DHT22;10404;51.468;6.762;2023-11-21T00:41:23;7.80;84.40
20492;DHT22;10404;51.468;6.762;2023-11-21T00:43:49;7.80;84.30
20492;DHT22;10404;51.468;6.762;2023-11-21T00:46:14;7.80;84.40
20492;DHT22;10404;51.468;6.762;2023-11-21T00:48:40;7.80;84.30
20492;DHT22;10404;51.468;6.762;2023-11-21T00:51:06;7.80;84.40
20492;DHT22;10404;51.468;6.762;2023-11-21T00:53:32;7.80;84.30
20492;DHT22;10404;51.468;6.762;2023-11-21T00:55:57;7.80;84.40
20492;DHT22;10404;51.468;6.762;2023-11-21T00:58:24;7.80;84.40
20492;DHT22;10404;51.468;6.762;2023-11-21T01:00:50;7.80;84.40
20492;DHT22;10404;51.468;6.762;2023-11-21T01:03:16;7.80;84.40
20492;DHT22;10404;51.468;6.762;2023-11-21T01:05:41;7.80;84.50
20492;DHT22;10404;51.468;6.762;2023-11-21T01:08:07;7.80;84.40
20492;DHT22;10404;51.468;6.762;2023-11-21T01:10:32;7.70;84.40
20492;DHT22;10404;51.468;6.762;2023-11-21T01:12:59;7.80;84.40
20492;DHT22;10404;51.468;6.762;2023-11-21T01:15:25;7.70;84.50
20492;DHT22;10404;51.468;6.762;2023-11-21T01:17:51;7.70;84.50
20492;DHT22;10404;51.468;6.762;2023-11-21T01:20:17;7.70;84.50
20492;DHT22;10404;51.468;6.762;2023-11-21T01:22:43;7.70;84.50
20492;DHT22;10404;51.468;6.762;2023-11-21T01:25:10;7.70;84.50
20492;DHT22;10404;51.468;6.762;2023-11-21T01:27:36;7.70;84.40
20492;DHT22;10404;51.468;6.762;2023-11-21T01:30:05;7.60;84.50
20492;DHT22;10404;51.468;6.762;2023-11-21T01:32:33;7.60;84.50
20492;DHT22;10404;51.468;6.762;2023-11-21T01:34:59;7.60;84.50
20492;DHT22;10404;51.468;6.762;2023-11-21T01:37:25;7.60;84.40
20492;DHT22;10404;51.468;6.762;2023-11-21T01:39:53;7.60;84.50
20492;DHT22;10404;51.468;6.762;2023-11-21T01:42:20;7.60;84.40
20492;DHT22;10404;51.468;6.762;2023-11-21T01:44:46;7.60;84.50
20492;DHT22;10404;51.468;6.762;2023-11-21T01:47:12;7.60;84.50
20492;DHT22;10404;51.468;6.762;2023-11-21T01:49:38;7.60;84.50
20492;DHT22;10404;51.468;6.762;2023-11-21T01:52:04;7.60;84.60
20492;DHT22;10404;51.468;6.762;2023-11-21T01:54:32;7.60;84.60
20492;DHT22;10404;51.468;6.762;2023-11-21T01:56:59;7.60;84.50
20492;DHT22;10404;51.468;6.762;2023-11-21T01:59:36;7.60;84.50
20492;DHT22;10404;51.468;6.762;2023-11-21T02:02:05;7.60;84.50
20492;DHT22;10404;51.468;6.762;2023-11-21T02:04:34;7.60;84.50
20492;DHT22;10404;51.468;6.762;2023-11-21T02:07:00;7.60;84.60
20492;DHT22;10404;51.468;6.762;2023-11-21T02:09:27;7.60;84.60
20492;DHT22;10404;51.468;6.762;2023-11-21T02:11:56;7.60;84.50
20492;DHT22;10404;51.468;6.762;2023-11-21T02:14:21;7.60;84.50
20492;DHT22;10404;51.468;6.762;2023-11-21T02:16:50;7.60;84.50
20492;DHT22;10404;51.468;6.762;2023-11-21T02:19:18;7.60;84.50
20492;DHT22;10404;51.468;6.762;2023-11-21T02:21:50;7.60;84.50
20492;DHT22;10404;51.468;6.762;2023-11-21T02:24:20;7.60;84.50
20492;DHT22;10404;51.468;6.762;2023-11-21T02:26:46;7.60;84.60
20492;DHT22;10404;51.468;6.762;2023-11-21T02:29:12;7.50;84.60
20492;DHT22;10404;51.468;6.762;2023-11-21T02:31:39;7.50;84.60
20492;DHT22;10404;51.468;6.762;2023-11-21T02:34:16;7.50;84.60
20492;DHT22;10404;51.468;6.762;2023-11-21T02:36:43;7.50;84.50
20492;DHT22;10404;51.468;6.762;2023-11-21T02:39:10;7.60;84.50
20492;DHT22;10404;51.468;6.762;2023-11-21T02:41:37;7.50;84.50
20492;DHT22;10404;51.468;6.762;2023-11-21T02:44:03;7.50;84.60
20492;DHT22;10404;51.468;6.762;2023-11-21T02:46:28;7.50;84.60
20492;DHT22;10404;51.468;6.762;2023-11-21T02:48:54;7.50;84.50
20492;DHT22;10404;51.468;6.762;2023-11-21T02:51:20;7.50;84.60
20492;DHT22;10404;51.468;6.762;2023-11-21T02:53:45;7.50;84.60
20492;DHT22;10404;51.468;6.762;2023-11-21T02:56:12;7.50;84.50
20492;DHT22;10404;51.468;6.762;2023-11-21T02:58:41;7.50;84.50
20492;DHT22;10404;51.468;6.762;2023-11-21T03:01:07;7.50;84.50
20492;DHT22;10404;51.468;6.762;2023-11-21T03:03:32;7.50;84.50
20492;DHT22;10404;51.468;6.762;2023-11-21T03:05:58;7.50;84.50
20492;DHT22;10404;51.468;6.762;2023-11-21T03:08:23;7.50;84.60
20492;DHT22;10404;51.468;6.762;2023-11-21T03:10:49;7.50;84.60
20492;DHT22;10404;51.468;6.762;2023-11-21T03:13:15;7.50;84.60
20492;DHT22;10404;51.468;6.762;2023-11-21T03:15:40;7.50;84.60
20492;DHT22;10404;51.468;6.762;2023-11-21T03:18:08;7.50;84.70
20492;DHT22;10404;51.468;6.762;2023-11-21T03:20:33;7.50;84.70
20492;DHT22;10404;51.468;6.762;2023-11-21T03:23:00;7.50;84.70
20492;DHT22;10404;51.468;6.762;2023-11-21T03:25:26;7.50;84.70
20492;DHT22;10404;51.468;6.762;2023-11-21T03:27:52;7.50;84.70
20492;DHT22;10404;51.468;6.762;2023-11-21T03:30:18;7.50;84.70
20492;DHT22;10404;51.468;6.762;2023-11-21T03:32:44;7.50;84.70
20492;DHT22;10404;51.468;6.762;2023-11-21T03:35:10;7.50;84.70
20492;DHT22;10404;51.468;6.762;2023-11-21T03:37:35;7.50;84.70
20492;DHT22;10404;51.468;6.762;2023-11-21T03:40:03;7.50;84.70
20492;DHT22;10404;51.468;6.762;2023-11-21T03:42:29;7.50;84.60
20492;DHT22;10404;51.468;6.762;2023-11-21T03:44:55;7.50;84.60
20492;DHT22;10404;51.468;6.762;2023-11-21T03:47:21;7.50;84.60
20492;DHT22;10404;51.468;6.762;2023-11-21T03:49:46;7.50;84.70
20492;DHT22;10404;51.468;6.762;2023-11-21T03:52:12;7.50;84.70
20492;DHT22;10404;51.468;6.762;2023-11-21T03:54:38;7.50;84.70
20492;DHT22;10404;51.468;6.762;2023-11-21T03:57:03;7.50;84.60
20492;DHT22;10404;51.468;6.762;2023-11-21T03:59:29;7.50;84.70
20492;DHT22;10404;51.468;6.762;2023-11-21T04:01:56;7.50;84.60
20492;DHT22;10404;51.468;6.762;2023-11-21T04:04:22;7.50;84.70
20492;DHT22;10404;51.468;6.762;2023-11-21T04:06:48;7.50;84.70
20492;DHT22;10404;51.468;6.762;2023-11-21T04:09:13;7.50;84.80
20492;DHT22;10404;51.468;6.762;2023-11-21T04:11:39;7.50;84.80
20492;DHT22;10404;51.468;6.762;2023-11-21T04:14:05;7.50;84.70
20492;DHT22;10404;51.468;6.762;2023-11-21T04:16:30;7.50;84.70
20492;DHT22;10404;51.468;6.762;2023-11-21T04:18:56;7.50;84.70
20492;DHT22;10404;51.468;6.762;2023-11-21T04:21:22;7.50;84.70
20492;DHT22;10404;51.468;6.762;2023-11-21T04:23:49;7.50;84.70
20492;DHT22;10404;51.468;6.762;2023-11-21T04:26:15;7.50;84.70
20492;DHT22;10404;51.468;6.762;2023-11-21T04:28:40;7.50;84.70
20492;DHT22;10404;51.468;6.762;2023-11-21T04:31:06;7.40;84.80
20492;DHT22;10404;51.468;6.762;2023-11-21T04:33:32;7.50;84.70
20492;DHT22;10404;51.468;6.762;2023-11-21T04:35:58;7.50;84.70
20492;DHT22;10404;51.468;6.762;2023-11-21T04:38:23;7.40;84.70
20492;DHT22;10404;51.468;6.762;2023-11-21T04:40:49;7.40;84.70
20492;DHT22;10404;51.468;6.762;2023-11-21T04:43:15;7.40;84.70
20492;DHT22;10404;51.468;6.762;2023-11-21T04:45:41;7.40;84.80
20492;DHT22;10404;51.468;6.762;2023-11-21T04:48:07;7.40;84.80
20492;DHT22;10404;51.468;6.762;2023-11-21T04:50:34;7.40;84.70
20492;DHT22;10404;51.468;6.762;2023-11-21T04:52:59;7.40;84.80
20492;DHT22;10404;51.468;6.762;2023-11-21T04:55:25;7.40;84.80
20492;DHT22;10404;51.468;6.762;2023-11-21T04:57:53;7.40;84.80
20492;DHT22;10404;51.468;6.762;2023-11-21T05:00:19;7.40;84.80
20492;DHT22;10404;51.468;6.762;2023-11-21T05:02:46;7.40;84.80
20492;DHT22;10404;51.468;6.762;2023-11-21T05:05:12;7.40;84.90
20492;DHT22;10404;51.468;6.762;2023-11-21T05:07:39;7.40;84.90
20492;DHT22;10404;51.468;6.762;2023-11-21T05:10:05;7.40;84.90
20492;DHT22;10404;51.468;6.762;2023-11-21T05:12:34;7.40;84.80
20492;DHT22;10404;51.468;6.762;2023-11-21T05:15:06;7.40;84.80
20492;DHT22;10404;51.468;6.762;2023-11-21T05:17:36;7.40;84.90
20492;DHT22;10404;51.468;6.762;2023-11-21T05:20:03;7.40;85.00
20492;DHT22;10404;51.468;6.762;2023-11-21T05:22:30;7.30;84.80
20492;DHT22;10404;51.468;6.762;2023-11-21T05:24:55;7.30;84.90
20492;DHT22;10404;51.468;6.762;2023-11-21T05:27:21;7.40;84.90
20492;DHT22;10404;51.468;6.762;2023-11-21T05:29:47;7.30;84.90
20492;DHT22;10404;51.468;6.762;2023-11-21T05:32:12;7.30;84.90
20492;DHT22;10404;51.468;6.762;2023-11-21T05:34:38;7.30;85.00
20492;DHT22;10404;51.468;6.762;2023-11-21T05:37:03;7.30;84.90
20492;DHT22;10404;51.468;6.762;2023-11-21T05:39:30;7.30;84.90
20492;DHT22;10404;51.468;6.762;2023-11-21T05:41:57;7.30;84.90
20492;DHT22;10404;51.468;6.762;2023-11-21T05:44:23;7.30;84.80
20492;DHT22;10404;51.468;6.762;2023-11-21T05:46:49;7.30;85.00
20492;DHT22;10404;51.468;6.762;2023-11-21T05:49:15;7.20;85.10
20492;DHT22;10404;51.468;6.762;2023-11-21T05:51:42;7.20;85.00
20492;DHT22;10404;51.468;6.762;2023-11-21T05:54:07;7.20;85.00
20492;DHT22;10404;51.468;6.762;2023-11-21T05:56:33;7.20;85.00
20492;DHT22;10404;51.468;6.762;2023-11-21T05:58:59;7.20;84.90
20492;DHT22;10404;51.468;6.762;2023-11-21T06:01:25;7.20;85.10
20492;DHT22;10404;51.468;6.762;2023-11-21T06:03:54;7.20;85.10
20492;DHT22;10404;51.468;6.762;2023-11-21T06:06:20;7.20;85.10
20492;DHT22;10404;51.468;6.762;2023-11-21T06:08:48;7.20;85.20
20492;DHT22;10404;51.468;6.762;2023-11-21T06:11:14;7.20;85.10
20492;DHT22;10404;51.468;6.762;2023-11-21T06:13:39;7.20;85.20
20492;DHT22;10404;51.468;6.762;2023-11-21T06:16:05;7.20;85.10
20492;DHT22;10404;51.468;6.762;2023-11-21T06:18:31;7.20;85.00
20492;DHT22;10404;51.468;6.762;2023-11-21T06:20:56;7.20;85.10
20492;DHT22;10404;51.468;6.762;2023-11-21T06:23:23;7.20;85.00
20492;DHT22;10404;51.468;6.762;2023-11-21T06:25:49;7.20;85.20
20492;DHT22;10404;51.468;6.762;2023-11-21T06:28:14;7.20;85.30
20492;DHT22;10404;51.468;6.762;2023-11-21T06:30:43;7.20;85.40
20492;DHT22;10404;51.468;6.762;2023-11-21T06:33:10;7.20;85.30
20492;DHT22;10404;51.468;6.762;2023-11-21T06:35:36;7.20;85.30
20492;DHT22;10404;51.468;6.762;2023-11-21T06:38:02;7.20;85.40
20492;DHT22;10404;51.468;6.762;2023-11-21T06:40:28;7.20;85.30
20492;DHT22;10404;51.468;6.762;2023-11-21T06:42:53;7.20;85.30
20492;DHT22;10404;51.468;6.762;2023-11-21T06:45:19;7.20;85.40
20492;DHT22;10404;51.468;6.762;2023-11-21T06:47:45;7.20;85.30
20492;DHT22;10404;51.468;6.762;2023-11-21T06:50:11;7.20;85.40
20492;DHT22;10404;51.468;6.762;2023-11-21T06:52:37;7.20;85.30
20492;DHT22;10404;51.468;6.762;2023-11-21T06:55:03;7.20;85.30
20492;DHT22;10404;51.468;6.762;2023-11-21T06:57:29;7.20;85.30
20492;DHT22;10404;51.468;6.762;2023-11-21T06:59:54;7.20;85.20
20492;DHT22;10404;51.468;6.762;2023-11-21T07:02:22;7.20;85.30
20492;DHT22;10404;51.468;6.762;2023-11-21T07:04:48;7.20;85.40
20492;DHT22;10404;51.468;6.762;2023-11-21T07:07:13;7.20;85.40
20492;DHT22;10404;51.468;6.762;2023-11-21T07:09:39;7.20;85.50
20492;DHT22;10404;51.468;6.762;2023-11-21T07:12:05;7.20;85.50
20492;DHT22;10404;51.468;6.762;2023-11-21T07:14:36;7.20;85.30
20492;DHT22;10404;51.468;6.762;2023-11-21T07:17:03;7.20;85.20
20492;DHT22;10404;51.468;6.762;2023-11-21T07:19:28;7.20;85.30
20492;DHT22;10404;51.468;6.762;2023-11-21T07:21:54;7.20;85.30
20492;DHT22;10404;51.468;6.762;2023-11-21T07:24:21;7.20;85.20
20492;DHT22;10404;51.468;6.762;2023-11-21T07:26:46;7.20;85.40
20492;DHT22;10404;51.468;6.762;2023-11-21T07:29:13;7.20;85.30
20492;DHT22;10404;51.468;6.762;2023-11-21T07:31:39;7.20;85.20
20492;DHT22;10404;51.468;6.762;2023-11-21T07:34:05;7.20;85.30
20492;DHT22;10404;51.468;6.762;2023-11-21T07:36:31;7.20;85.50
20492;DHT22;10404;51.468;6.762;2023-11-21T07:38:57;7.20;85.50
20492;DHT22;10404;51.468;6.762;2023-11-21T07:41:22;7.20;85.30
20492;DHT22;10404;51.468;6.762;2023-11-21T07:43:48;7.20;85.30
20492;DHT22;10404;51.468;6.762;2023-11-21T07:46:14;7.20;85.30
20492;DHT22;10404;51.468;6.762;2023-11-21T07:48:41;7.30;85.50
20492;DHT22;10404;51.468;6.762;2023-11-21T07:51:07;7.20;85.40
20492;DHT22;10404;51.468;6.762;2023-11-21T07:53:33;7.20;85.40
20492;DHT22;10404;51.468;6.762;2023-11-21T07:56:04;7.30;85.50
20492;DHT22;10404;51.468;6.762;2023-11-21T07:58:30;7.30;85.50
20492;DHT22;10404;51.468;6.762;2023-11-21T08:00:56;7.30;85.40
20492;DHT22;10404;51.468;6.762;2023-11-21T08:03:22;7.30;85.40
20492;DHT22;10404;51.468;6.762;2023-11-21T08:05:47;7.30;85.30
20492;DHT22;10404;51.468;6.762;2023-11-21T08:08:13;7.30;85.40
20492;DHT22;10404;51.468;6.762;2023-11-21T08:10:39;7.30;85.30
20492;DHT22;10404;51.468;6.762;2023-11-21T08:13:05;7.30;85.10
20492;DHT22;10404;51.468;6.762;2023-11-21T08:15:31;7.40;85.40
20492;DHT22;10404;51.468;6.762;2023-11-21T08:17:58;7.40;85.50
20492;DHT22;10404;51.468;6.762;2023-11-21T08:20:24;7.40;85.70
20492;DHT22;10404;51.468;6.762;2023-11-21T08:22:50;7.40;85.60
20492;DHT22;10404;51.468;6.762;2023-11-21T08:25:17;7.40;85.70
20492;DHT22;10404;51.468;6.762;2023-11-21T08:27:45;7.40;85.90
20492;DHT22;10404;51.468;6.762;2023-11-21T08:30:11;7.40;86.00
20492;DHT22;10404;51.468;6.762;2023-11-21T08:32:37;7.40;85.70
20492;DHT22;10404;51.468;6.762;2023-11-21T08:35:03;7.40;85.90
20492;DHT22;10404;51.468;6.762;2023-11-21T08:37:30;7.40;86.00
20492;DHT22;10404;51.468;6.762;2023-11-21T08:39:58;7.40;86.00
20492;DHT22;10404;51.468;6.762;2023-11-21T08:42:27;7.40;86.10
20492;DHT22;10404;51.468;6.762;2023-11-21T08:44:58;7.40;85.90
20492;DHT22;10404;51.468;6.762;2023-11-21T08:47:23;7.40;86.10
20492;DHT22;10404;51.468;6.762;2023-11-21T08:49:52;7.40;86.20
20492;DHT22;10404;51.468;6.762;2023-11-21T08:52:19;7.50;86.20
20492;DHT22;10404;51.468;6.762;2023-11-21T08:54:51;7.50;86.20
20492;DHT22;10404;51.468;6.762;2023-11-21T08:57:25;7.50;86.20
20492;DHT22;10404;51.468;6.762;2023-11-21T08:59:50;7.50;86.20
20492;DHT22;10404;51.468;6.762;2023-11-21T09:02:25;7.50;86.30
20492;DHT22;10404;51.468;6.762;2023-11-21T09:04:51;7.50;86.20
20492;DHT22;10404;51.468;6.762;2023-11-21T09:07:18;7.50;86.30
20492;DHT22;10404;51.468;6.762;2023-11-21T09:09:48;7.50;86.50
20492;DHT22;10404;51.468;6.762;2023-11-21T09:12:15;7.50;86.40
20492;DHT22;10404;51.468;6.762;2023-11-21T09:14:42;7.50;86.50
20492;DHT22;10404;51.468;6.762;2023-11-21T09:17:09;7.50;86.30
20492;DHT22;10404;51.468;6.762;2023-11-21T09:19:38;7.50;86.10
20492;DHT22;10404;51.468;6.762;2023-11-21T09:22:04;7.50;86.20
20492;DHT22;10404;51.468;6.762;2023-11-21T09:24:31;7.50;86.40
20492;DHT22;10404;51.468;6.762;2023-11-21T09:26:57;7.50;86.20
20492;DHT22;10404;51.468;6.762;2023-11-21T09:29:23;7.60;86.40
20492;DHT22;10404;51.468;6.762;2023-11-21T09:31:48;7.60;86.30
20492;DHT22;10404;51.468;6.762;2023-11-21T09:34:16;7.60;86.10
20492;DHT22;10404;51.468;6.762;2023-11-21T09:36:45;7.60;86.00
20492;DHT22;10404;51.468;6.762;2023-11-21T09:39:11;7.60;86.00
20492;DHT22;10404;51.468;6.762;2023-11-21T09:41:50;7.60;86.10
20492;DHT22;10404;51.468;6.762;2023-11-21T09:44:31;7.60;86.50
20492;DHT22;10404;51.468;6.762;2023-11-21T09:46:59;7.60;86.40
20492;DHT22;10404;51.468;6.762;2023-11-21T09:49:26;7.60;86.10
20492;DHT22;10404;51.468;6.762;2023-11-21T09:51:55;7.60;86.10
20492;DHT22;10404;51.468;6.762;2023-11-21T09:54:21;7.70;86.00
20492;DHT22;10404;51.468;6.762;2023-11-21T09:56:47;7.70;86.20
20492;DHT22;10404;51.468;6.762;2023-11-21T09:59:15;7.70;86.30
20492;DHT22;10404;51.468;6.762;2023-11-21T10:01:42;7.80;86.10
20492;DHT22;10404;51.468;6.762;2023-11-21T10:04:11;7.80;86.20
20492;DHT22;10404;51.468;6.762;2023-11-21T10:06:40;7.80;86.20
20492;DHT22;10404;51.468;6.762;2023-11-21T10:09:12;7.80;86.30
20492;DHT22;10404;51.468;6.762;2023-11-21T10:11:43;7.80;86.00
20492;DHT22;10404;51.468;6.762;2023-11-21T10:14:11;7.80;86.20
20492;DHT22;10404;51.468;6.762;2023-11-21T10:16:38;7.80;86.10
20492;DHT22;10404;51.468;6.762;2023-11-21T10:19:05;7.80;85.90
20492;DHT22;10404;51.468;6.762;2023-11-21T10:21:35;7.80;86.00
20492;DHT22;10404;51.468;6.762;2023-11-21T10:24:00;7.90;85.80
20492;DHT22;10404;51.468;6.762;2023-11-21T10:26:27;7.90;86.10
20492;DHT22;10404;51.468;6.762;2023-11-21T10:29:01;8.00;86.40
20492;DHT22;10404;51.468;6.762;2023-11-21T10:31:31;8.00;86.60
20492;DHT22;10404;51.468;6.762;2023-11-21T10:34:18;8.00;86.90
20492;DHT22;10404;51.468;6.762;2023-11-21T10:36:45;8.00;86.70
20492;DHT22;10404;51.468;6.762;2023-11-21T10:39:18;8.00;85.90
20492;DHT22;10404;51.468;6.762;2023-11-21T10:41:47;8.00;86.20
20492;DHT22;10404;51.468;6.762;2023-11-21T10:44:14;8.10;86.30
20492;DHT22;10404;51.468;6.762;2023-11-21T10:46:47;8.10;86.70
20492;DHT22;10404;51.468;6.762;2023-11-21T10:49:17;8.10;86.60
20492;DHT22;10404;51.468;6.762;2023-11-21T10:51:46;8.10;86.60
20492;DHT22;10404;51.468;6.762;2023-11-21T10:54:18;8.20;86.40
20492;DHT22;10404;51.468;6.762;2023-11-21T10:56:44;8.20;86.60
20492;DHT22;10404;51.468;6.762;2023-11-21T10:59:10;8.30;86.60
20492;DHT22;10404;51.468;6.762;2023-11-21T11:01:42;8.30;86.60
20492;DHT22;10404;51.468;6.762;2023-11-21T11:04:09;8.30;86.40
20492;DHT22;10404;51.468;6.762;2023-11-21T11:06:43;8.40;86.20
20492;DHT22;10404;51.468;6.762;2023-11-21T11:09:11;8.40;85.60
20492;DHT22;10404;51.468;6.762;2023-11-21T11:11:40;8.40;85.40
20492;DHT22;10404;51.468;6.762;2023-11-21T11:14:10;8.40;85.40
20492;DHT22;10404;51.468;6.762;2023-11-21T11:16:38;8.50;85.60
20492;DHT22;10404;51.468;6.762;2023-11-21T11:19:07;8.50;85.50
20492;DHT22;10404;51.468;6.762;2023-11-21T11:35:10;8.60;85.40
20492;DHT22;10404;51.468;6.762;2023-11-21T11:37:42;8.60;85.80
20492;DHT22;10404;51.468;6.762;2023-11-21T11:40:08;8.60;85.70
20492;DHT22;10404;51.468;6.762;2023-11-21T11:42:36;8.60;85.40
20492;DHT22;10404;51.468;6.762;2023-11-21T11:45:01;8.60;85.30
20492;DHT22;10404;51.468;6.762;2023-11-21T11:47:31;8.70;85.20
20492;DHT22;10404;51.468;6.762;2023-11-21T11:50:09;8.70;85.20
20492;DHT22;10404;51.468;6.762;2023-11-21T11:52:40;8.70;85.40
20492;DHT22;10404;51.468;6.762;2023-11-21T11:55:08;8.80;85.70
20492;DHT22;10404;51.468;6.762;2023-11-21T11:57:37;8.80;85.20
20492;DHT22;10404;51.468;6.762;2023-11-21T12:00:08;8.80;85.40
20492;DHT22;10404;51.468;6.762;2023-11-21T12:02:38;8.80;85.50
20492;DHT22;10404;51.468;6.762;2023-11-21T12:05:31;8.80;85.00
20492;DHT22;10404;51.468;6.762;2023-11-21T12:08:11;8.90;84.70
20492;DHT22;10404;51.468;6.762;2023-11-21T12:10:38;8.90;85.40
20492;DHT22;10404;51.468;6.762;2023-11-21T12:13:07;8.90;85.30
20492;DHT22;10404;51.468;6.762;2023-11-21T12:15:36;9.00;84.80
20492;DHT22;10404;51.468;6.762;2023-11-21T12:18:03;9.00;84.90
20492;DHT22;10404;51.468;6.762;2023-11-21T12:20:29;9.00;84.90
20492;DHT22;10404;51.468;6.762;2023-11-21T12:22:57;9.00;85.20
20492;DHT22;10404;51.468;6.762;2023-11-21T12:25:27;9.00;84.70
20492;DHT22;10404;51.468;6.762;2023-11-21T12:28:01;9.10;84.50
20492;DHT22;10404;51.468;6.762;2023-11-21T12:30:29;9.10;84.50
20492;DHT22;10404;51.468;6.762;2023-11-21T12:32:57;9.20;84.50
20492;DHT22;10404;51.468;6.762;2023-11-21T12:35:31;9.20;84.30
20492;DHT22;10404;51.468;6.762;2023-11-21T12:38:00;9.20;84.10
20492;DHT22;10404;51.468;6.762;2023-11-21T12:40:27;9.20;84.40
20492;DHT22;10404;51.468;6.762;2023-11-21T12:42:56;9.20;84.70
20492;DHT22;10404;51.468;6.762;2023-11-21T12:45:23;9.20;85.10
20492;DHT22;10404;51.468;6.762;2023-11-21T12:48:10;9.20;85.00
20492;DHT22;10404;51.468;6.762;2023-11-21T12:50:37;9.20;84.90
20492;DHT22;10404;51.468;6.762;2023-11-21T12:53:08;9.20;84.60
20492;DHT22;10404;51.468;6.762;2023-11-21T12:55:36;9.20;84.90
20492;DHT22;10404;51.468;6.762;2023-11-21T12:58:09;9.20;84.70
20492;DHT22;10404;51.468;6.762;2023-11-21T13:00:39;9.20;85.00
20492;DHT22;10404;51.468;6.762;2023-11-21T13:03:06;9.20;84.70
20492;DHT22;10404;51.468;6.762;2023-11-21T13:05:39;9.20;84.80
20492;DHT22;10404;51.468;6.762;2023-11-21T13:08:08;9.20;85.20
20492;DHT22;10404;51.468;6.762;2023-11-21T13:10:36;9.20;85.00
20492;DHT22;10404;51.468;6.762;2023-11-21T13:13:10;9.20;85.00
20492;DHT22;10404;51.468;6.762;2023-11-21T13:15:50;9.20;85.50
20492;DHT22;10404;51.468;6.762;2023-11-21T13:18:18;9.20;85.20
20492;DHT22;10404;51.468;6.762;2023-11-21T13:20:43;9.20;85.70
20492;DHT22;10404;51.468;6.762;2023-11-21T13:23:10;9.20;85.80
20492;DHT22;10404;51.468;6.762;2023-11-21T13:25:41;9.30;85.60
20492;DHT22;10404;51.468;6.762;2023-11-21T13:28:07;9.20;85.50
20492;DHT22;10404;51.468;6.762;2023-11-21T13:30:33;9.30;85.50
20492;DHT22;10404;51.468;6.762;2023-11-21T13:33:01;9.20;85.70
20492;DHT22;10404;51.468;6.762;2023-11-21T13:35:37;9.30;85.10
20492;DHT22;10404;51.468;6.762;2023-11-21T13:38:08;9.30;85.40
20492;DHT22;10404;51.468;6.762;2023-11-21T13:40:35;9.30;85.60
20492;DHT22;10404;51.468;6.762;2023-11-21T13:43:08;9.30;85.50
20492;DHT22;10404;51.468;6.762;2023-11-21T13:45:39;9.30;85.10
20492;DHT22;10404;51.468;6.762;2023-11-21T13:48:06;9.30;85.40
20492;DHT22;10404;51.468;6.762;2023-11-21T13:50:36;9.30;85.30
20492;DHT22;10404;51.468;6.762;2023-11-21T13:53:03;9.30;85.00
20492;DHT22;10404;51.468;6.762;2023-11-21T13:55:41;9.30;85.00
20492;DHT22;10404;51.468;6.762;2023-11-21T13:58:07;9.30;85.20
20492;DHT22;10404;51.468;6.762;2023-11-21T14:00:37;9.30;85.10
20492;DHT22;10404;51.468;6.762;2023-11-21T14:03:12;9.30;85.20
20492;DHT22;10404;51.468;6.762;2023-11-21T14:05:48;9.30;85.00
20492;DHT22;10404;51.468;6.762;2023-11-21T14:08:22;9.30;85.00
20492;DHT22;10404;51.468;6.762;2023-11-21T14:10:57;9.30;85.50
20492;DHT22;10404;51.468;6.762;2023-11-21T14:13:25;9.30;85.60
20492;DHT22;10404;51.468;6.762;2023-11-21T14:15:51;9.30;85.70
20492;DHT22;10404;51.468;6.762;2023-11-21T14:18:26;9.30;85.40
20492;DHT22;10404;51.468;6.762;2023-11-21T14:21:04;9.30;85.10
20492;DHT22;10404;51.468;6.762;2023-11-21T14:23:31;9.30;85.20
20492;DHT22;10404;51.468;6.762;2023-11-21T14:25:58;9.30;85.40
20492;DHT22;10404;51.468;6.762;2023-11-21T14:28:26;9.30;85.30
20492;DHT22;10404;51.468;6.762;2023-11-21T14:30:52;9.20;85.30
20492;DHT22;10404;51.468;6.762;2023-11-21T14:33:17;9.20;85.90
20492;DHT22;10404;51.468;6.762;2023-11-21T14:35:43;9.20;85.70
20492;DHT22;10404;51.468;6.762;2023-11-21T14:38:10;9.20;85.80
20492;DHT22;10404;51.468;6.762;2023-11-21T14:40:36;9.20;85.90
20492;DHT22;10404;51.468;6.762;2023-11-21T14:43:04;9.20;85.80
20492;DHT22;10404;51.468;6.762;2023-11-21T14:45:33;9.20;85.80
20492;DHT22;10404;51.468;6.762;2023-11-21T14:48:00;9.20;85.80
20492;DHT22;10404;51.468;6.762;2023-11-21T14:50:34;9.20;85.70
20492;DHT22;10404;51.468;6.762;2023-11-21T14:53:18;9.20;85.90
20492;DHT22;10404;51.468;6.762;2023-11-21T14:56:04;9.20;85.80
20492;DHT22;10404;51.468;6.762;2023-11-21T14:58:30;9.20;85.70
20492;DHT22;10404;51.468;6.762;2023-11-21T15:00:57;9.20;85.90
20492;DHT22;10404;51.468;6.762;2023-11-21T15:03:27;9.20;85.90
20492;DHT22;10404;51.468;6.762;2023-11-21T15:05:59;9.20;85.90
20492;DHT22;10404;51.468;6.762;2023-11-21T15:08:44;9.20;86.00
20492;DHT22;10404;51.468;6.762;2023-11-21T15:11:09;9.20;85.70
20492;DHT22;10404;51.468;6.762;2023-11-21T15:13:40;9.10;85.90
20492;DHT22;10404;51.468;6.762;2023-11-21T15:16:07;9.20;86.00
20492;DHT22;10404;51.468;6.762;2023-11-21T15:18:34;9.20;86.00
20492;DHT22;10404;51.468;6.762;2023-11-21T15:21:01;9.20;85.70
20492;DHT22;10404;51.468;6.762;2023-11-21T15:23:29;9.10;85.50
20492;DHT22;10404;51.468;6.762;2023-11-21T15:25:56;9.10;85.50
20492;DHT22;10404;51.468;6.762;2023-11-21T15:28:23;9.10;85.30
20492;DHT22;10404;51.468;6.762;2023-11-21T15:30:50;9.00;85.20
20492;DHT22;10404;51.468;6.762;2023-11-21T15:33:16;9.00;85.30
20492;DHT22;10404;51.468;6.762;2023-11-21T15:35:42;9.00;85.20
20492;DHT22;10404;51.468;6.762;2023-11-21T15:38:08;9.00;85.00
20492;DHT22;10404;51.468;6.762;2023-11-21T15:40:34;9.00;85.00
20492;DHT22;10404;51.468;6.762;2023-11-21T15:43:00;9.00;85.00
20492;DHT22;10404;51.468;6.762;2023-11-21T15:45:28;9.00;84.90
20492;DHT22;10404;51.468;6.762;2023-11-21T15:47:54;9.00;85.00
20492;DHT22;10404;51.468;6.762;2023-11-21T15:50:20;9.00;85.00
20492;DHT22;10404;51.468;6.762;2023-11-21T15:52:46;9.00;85.00
20492;DHT22;10404;51.468;6.762;2023-11-21T15:55:12;9.00;85.00
20492;DHT22;10404;51.468;6.762;2023-11-21T15:57:38;9.00;85.00
20492;DHT22;10404;51.468;6.762;2023-11-21T16:00:04;9.00;84.80
20492;DHT22;10404;51.468;6.762;2023-11-21T16:02:36;9.00;84.80